sensor_id;sensor_type;location;lat;lon;timestamp;P1;durP1;ratioP1;P2;durP2;ratioP2
32455;SDS011;18912;43.270;27.942;2023-02-15T00:01:25;26.17;;;11.75;;
32455;SDS011;18912;43.270;27.942;2023-02-15T00:03:51;26.20;;;11.00;;
32455;SDS011;18912;43.270;27.942;2023-02-15T00:06:16;20.33;;;10.65;;
32455;SDS011;18912;43.270;27.942;2023-02-15T00:08:42;23.70;;;11.23;;
32455;SDS011;18912;43.270;27.942;2023-02-15T00:11:09;23.08;;;11.40;;
32455;SDS011;18912;43.270;27.942;2023-02-15T00:13:39;26.50;;;12.13;;
32455;SDS011;18912;43.270;27.942;2023-02-15T00:16:08;24.83;;;11.50;;
32455;SDS011;18912;43.270;27.942;2023-02-15T00:18:35;34.17;;;12.15;;
32455;SDS011;18912;43.270;27.942;2023-02-15T00:23:31;33.28;;;11.20;;
32455;SDS011;18912;43.270;27.942;2023-02-15T00:26:07;26.67;;;11.80;;
32455;SDS011;18912;43.270;27.942;2023-02-15T00:28:34;23.80;;;11.05;;
32455;SDS011;18912;43.270;27.942;2023-02-15T00:31:04;26.10;;;12.50;;
32455;SDS011;18912;43.270;27.942;2023-02-15T00:33:33;26.38;;;12.90;;
32455;SDS011;18912;43.270;27.942;2023-02-15T00:35:59;23.90;;;12.38;;
32455;SDS011;18912;43.270;27.942;2023-02-15T00:38:25;26.90;;;11.65;;
32455;SDS011;18912;43.270;27.942;2023-02-15T00:40:55;24.30;;;12.02;;
32455;SDS011;18912;43.270;27.942;2023-02-15T00:43:25;24.50;;;11.32;;
32455;SDS011;18912;43.270;27.942;2023-02-15T00:45:51;22.25;;;11.85;;
32455;SDS011;18912;43.270;27.942;2023-02-15T00:48:17;25.95;;;11.50;;
32455;SDS011;18912;43.270;27.942;2023-02-15T00:50:50;25.23;;;11.60;;
32455;SDS011;18912;43.270;27.942;2023-02-15T00:53:18;25.40;;;12.52;;
32455;SDS011;18912;43.270;27.942;2023-02-15T00:55:44;24.23;;;11.05;;
32455;SDS011;18912;43.270;27.942;2023-02-15T00:58:10;22.57;;;10.87;;
32455;SDS011;18912;43.270;27.942;2023-02-15T01:00:36;23.85;;;11.27;;
32455;SDS011;18912;43.270;27.942;2023-02-15T01:05:29;28.67;;;11.35;;
32455;SDS011;18912;43.270;27.942;2023-02-15T01:07:56;25.25;;;11.80;;
32455;SDS011;18912;43.270;27.942;2023-02-15T01:12:48;25.55;;;12.85;;
32455;SDS011;18912;43.270;27.942;2023-02-15T01:15:14;25.08;;;10.52;;
32455;SDS011;18912;43.270;27.942;2023-02-15T01:17:40;30.13;;;12.53;;
32455;SDS011;18912;43.270;27.942;2023-02-15T01:20:05;27.07;;;12.67;;
32455;SDS011;18912;43.270;27.942;2023-02-15T01:22:31;37.85;;;13.45;;
32455;SDS011;18912;43.270;27.942;2023-02-15T01:24:57;25.40;;;11.70;;
32455;SDS011;18912;43.270;27.942;2023-02-15T01:27:22;26.70;;;11.90;;
32455;SDS011;18912;43.270;27.942;2023-02-15T01:29:48;23.77;;;12.03;;
32455;SDS011;18912;43.270;27.942;2023-02-15T01:32:13;29.27;;;12.47;;
32455;SDS011;18912;43.270;27.942;2023-02-15T01:34:38;33.83;;;11.93;;
32455;SDS011;18912;43.270;27.942;2023-02-15T01:37:04;24.47;;;11.67;;
32455;SDS011;18912;43.270;27.942;2023-02-15T01:39:29;24.43;;;11.30;;
32455;SDS011;18912;43.270;27.942;2023-02-15T01:41:55;27.60;;;12.27;;
32455;SDS011;18912;43.270;27.942;2023-02-15T01:47:08;31.40;;;11.93;;
32455;SDS011;18912;43.270;27.942;2023-02-15T01:49:35;29.63;;;12.40;;
32455;SDS011;18912;43.270;27.942;2023-02-15T01:52:01;26.65;;;11.65;;
32455;SDS011;18912;43.270;27.942;2023-02-15T01:54:29;22.05;;;10.73;;
32455;SDS011;18912;43.270;27.942;2023-02-15T01:56:58;25.02;;;11.05;;
32455;SDS011;18912;43.270;27.942;2023-02-15T01:59:26;26.02;;;12.32;;
32455;SDS011;18912;43.270;27.942;2023-02-15T02:01:52;27.70;;;12.03;;
32455;SDS011;18912;43.270;27.942;2023-02-15T02:07:02;24.65;;;11.75;;
32455;SDS011;18912;43.270;27.942;2023-02-15T02:09:29;27.05;;;12.35;;
32455;SDS011;18912;43.270;27.942;2023-02-15T02:11:55;27.95;;;11.95;;
32455;SDS011;18912;43.270;27.942;2023-02-15T02:14:21;27.87;;;11.80;;
32455;SDS011;18912;43.270;27.942;2023-02-15T02:25:14;29.63;;;12.32;;
32455;SDS011;18912;43.270;27.942;2023-02-15T02:30:26;26.58;;;11.68;;
32455;SDS011;18912;43.270;27.942;2023-02-15T02:38:54;26.48;;;12.65;;
32455;SDS011;18912;43.270;27.942;2023-02-15T02:41:52;23.77;;;11.73;;
32455;SDS011;18912;43.270;27.942;2023-02-15T02:44:27;26.33;;;12.05;;
32455;SDS011;18912;43.270;27.942;2023-02-15T02:47:05;28.17;;;12.20;;
32455;SDS011;18912;43.270;27.942;2023-02-15T02:55:11;28.95;;;11.10;;
32455;SDS011;18912;43.270;27.942;2023-02-15T02:57:40;22.33;;;11.10;;
32455;SDS011;18912;43.270;27.942;2023-02-15T03:00:29;27.25;;;11.95;;
32455;SDS011;18912;43.270;27.942;2023-02-15T03:03:28;23.67;;;10.23;;
32455;SDS011;18912;43.270;27.942;2023-02-15T03:06:00;27.27;;;11.70;;
32455;SDS011;18912;43.270;27.942;2023-02-15T03:08:31;27.33;;;12.40;;
32455;SDS011;18912;43.270;27.942;2023-02-15T03:11:02;26.98;;;11.45;;
32455;SDS011;18912;43.270;27.942;2023-02-15T03:13:29;24.80;;;11.18;;
32455;SDS011;18912;43.270;27.942;2023-02-15T03:15:55;26.33;;;11.52;;
32455;SDS011;18912;43.270;27.942;2023-02-15T03:18:43;23.42;;;10.30;;
32455;SDS011;18912;43.270;27.942;2023-02-15T03:21:17;23.40;;;10.40;;
32455;SDS011;18912;43.270;27.942;2023-02-15T03:23:59;25.20;;;10.48;;
32455;SDS011;18912;43.270;27.942;2023-02-15T03:26:31;28.23;;;12.32;;
32455;SDS011;18912;43.270;27.942;2023-02-15T03:28:59;26.00;;;11.05;;
32455;SDS011;18912;43.270;27.942;2023-02-15T03:31:28;23.92;;;11.05;;
32455;SDS011;18912;43.270;27.942;2023-02-15T03:34:01;25.95;;;11.00;;
32455;SDS011;18912;43.270;27.942;2023-02-15T03:36:36;22.40;;;10.13;;
32455;SDS011;18912;43.270;27.942;2023-02-15T03:39:13;24.50;;;11.05;;
32455;SDS011;18912;43.270;27.942;2023-02-15T03:42:04;31.05;;;12.60;;
32455;SDS011;18912;43.270;27.942;2023-02-15T03:44:41;23.98;;;11.02;;
32455;SDS011;18912;43.270;27.942;2023-02-15T03:47:25;28.27;;;11.43;;
32455;SDS011;18912;43.270;27.942;2023-02-15T03:52:53;27.10;;;11.35;;
32455;SDS011;18912;43.270;27.942;2023-02-15T03:55:22;22.05;;;10.52;;
32455;SDS011;18912;43.270;27.942;2023-02-15T03:57:47;26.23;;;11.43;;
32455;SDS011;18912;43.270;27.942;2023-02-15T04:00:31;25.85;;;11.32;;
32455;SDS011;18912;43.270;27.942;2023-02-15T04:05:51;28.75;;;10.50;;
32455;SDS011;18912;43.270;27.942;2023-02-15T04:08:16;29.83;;;10.40;;
32455;SDS011;18912;43.270;27.942;2023-02-15T04:10:42;25.23;;;11.10;;
32455;SDS011;18912;43.270;27.942;2023-02-15T04:13:23;26.08;;;10.48;;
32455;SDS011;18912;43.270;27.942;2023-02-15T04:15:50;25.60;;;10.95;;
32455;SDS011;18912;43.270;27.942;2023-02-15T04:18:32;32.75;;;11.13;;
32455;SDS011;18912;43.270;27.942;2023-02-15T04:21:22;31.15;;;11.23;;
32455;SDS011;18912;43.270;27.942;2023-02-15T04:24:08;25.08;;;10.80;;
32455;SDS011;18912;43.270;27.942;2023-02-15T04:26:52;24.10;;;11.65;;
32455;SDS011;18912;43.270;27.942;2023-02-15T04:29:18;25.43;;;10.70;;
32455;SDS011;18912;43.270;27.942;2023-02-15T04:31:45;24.05;;;10.77;;
32455;SDS011;18912;43.270;27.942;2023-02-15T04:34:11;35.20;;;12.63;;
32455;SDS011;18912;43.270;27.942;2023-02-15T04:36:37;28.77;;;11.23;;
32455;SDS011;18912;43.270;27.942;2023-02-15T04:39:04;29.00;;;11.73;;
32455;SDS011;18912;43.270;27.942;2023-02-15T04:41:30;23.70;;;10.15;;
32455;SDS011;18912;43.270;27.942;2023-02-15T04:43:55;26.87;;;11.53;;
32455;SDS011;18912;43.270;27.942;2023-02-15T04:46:22;23.50;;;10.88;;
32455;SDS011;18912;43.270;27.942;2023-02-15T04:48:47;22.27;;;10.67;;
32455;SDS011;18912;43.270;27.942;2023-02-15T04:51:13;24.80;;;10.67;;
32455;SDS011;18912;43.270;27.942;2023-02-15T04:53:38;24.73;;;10.63;;
32455;SDS011;18912;43.270;27.942;2023-02-15T04:56:04;23.60;;;11.17;;
32455;SDS011;18912;43.270;27.942;2023-02-15T04:58:29;24.07;;;10.80;;
32455;SDS011;18912;43.270;27.942;2023-02-15T05:00:55;27.83;;;11.33;;
32455;SDS011;18912;43.270;27.942;2023-02-15T05:05:47;23.42;;;10.13;;
32455;SDS011;18912;43.270;27.942;2023-02-15T05:08:12;23.87;;;10.57;;
32455;SDS011;18912;43.270;27.942;2023-02-15T05:10:38;21.23;;;9.77;;
32455;SDS011;18912;43.270;27.942;2023-02-15T05:13:03;27.23;;;10.50;;
32455;SDS011;18912;43.270;27.942;2023-02-15T05:15:29;23.77;;;11.27;;
32455;SDS011;18912;43.270;27.942;2023-02-15T05:17:54;23.40;;;10.43;;
32455;SDS011;18912;43.270;27.942;2023-02-15T05:20:20;25.10;;;11.13;;
32455;SDS011;18912;43.270;27.942;2023-02-15T05:22:45;23.70;;;10.80;;
32455;SDS011;18912;43.270;27.942;2023-02-15T05:25:11;27.90;;;10.80;;
32455;SDS011;18912;43.270;27.942;2023-02-15T05:27:55;23.13;;;10.57;;
32455;SDS011;18912;43.270;27.942;2023-02-15T05:30:39;22.98;;;10.07;;
32455;SDS011;18912;43.270;27.942;2023-02-15T05:33:05;25.42;;;11.80;;
32455;SDS011;18912;43.270;27.942;2023-02-15T05:35:31;29.00;;;11.13;;
32455;SDS011;18912;43.270;27.942;2023-02-15T05:37:57;34.83;;;12.52;;
32455;SDS011;18912;43.270;27.942;2023-02-15T05:40:22;27.40;;;10.80;;
32455;SDS011;18912;43.270;27.942;2023-02-15T05:42:48;22.83;;;10.50;;
32455;SDS011;18912;43.270;27.942;2023-02-15T05:45:13;25.43;;;10.67;;
32455;SDS011;18912;43.270;27.942;2023-02-15T05:50:05;25.70;;;11.13;;
32455;SDS011;18912;43.270;27.942;2023-02-15T05:52:31;24.15;;;10.80;;
32455;SDS011;18912;43.270;27.942;2023-02-15T05:54:57;21.30;;;10.27;;
32455;SDS011;18912;43.270;27.942;2023-02-15T05:57:24;21.58;;;9.65;;
32455;SDS011;18912;43.270;27.942;2023-02-15T05:59:49;23.63;;;10.07;;
32455;SDS011;18912;43.270;27.942;2023-02-15T06:02:14;25.57;;;9.47;;
32455;SDS011;18912;43.270;27.942;2023-02-15T06:04:40;21.50;;;9.80;;
32455;SDS011;18912;43.270;27.942;2023-02-15T06:07:05;22.27;;;9.70;;
32455;SDS011;18912;43.270;27.942;2023-02-15T06:09:31;12.27;;;6.33;;
32455;SDS011;18912;43.270;27.942;2023-02-15T06:11:56;23.67;;;9.03;;
32455;SDS011;18912;43.270;27.942;2023-02-15T06:14:22;23.47;;;9.47;;
32455;SDS011;18912;43.270;27.942;2023-02-15T06:16:48;21.77;;;9.65;;
32455;SDS011;18912;43.270;27.942;2023-02-15T06:19:13;24.73;;;9.43;;
32455;SDS011;18912;43.270;27.942;2023-02-15T06:21:39;21.37;;;9.70;;
32455;SDS011;18912;43.270;27.942;2023-02-15T06:24:04;23.13;;;9.00;;
32455;SDS011;18912;43.270;27.942;2023-02-15T06:26:30;19.57;;;8.90;;
32455;SDS011;18912;43.270;27.942;2023-02-15T06:28:55;19.90;;;8.97;;
32455;SDS011;18912;43.270;27.942;2023-02-15T06:31:21;12.70;;;6.10;;
32455;SDS011;18912;43.270;27.942;2023-02-15T06:33:46;16.10;;;7.83;;
32455;SDS011;18912;43.270;27.942;2023-02-15T06:36:11;17.63;;;9.47;;
32455;SDS011;18912;43.270;27.942;2023-02-15T06:38:37;15.03;;;9.03;;
32455;SDS011;18912;43.270;27.942;2023-02-15T06:41:03;17.50;;;8.10;;
32455;SDS011;18912;43.270;27.942;2023-02-15T06:43:28;17.33;;;8.50;;
32455;SDS011;18912;43.270;27.942;2023-02-15T06:45:54;17.97;;;8.77;;
32455;SDS011;18912;43.270;27.942;2023-02-15T06:48:19;15.80;;;7.93;;
32455;SDS011;18912;43.270;27.942;2023-02-15T06:50:45;16.27;;;7.90;;
32455;SDS011;18912;43.270;27.942;2023-02-15T06:53:10;9.83;;;5.03;;
32455;SDS011;18912;43.270;27.942;2023-02-15T06:55:36;15.27;;;7.83;;
32455;SDS011;18912;43.270;27.942;2023-02-15T06:58:01;15.57;;;7.13;;
32455;SDS011;18912;43.270;27.942;2023-02-15T07:00:27;16.88;;;7.90;;
32455;SDS011;18912;43.270;27.942;2023-02-15T07:02:56;15.83;;;7.70;;
32455;SDS011;18912;43.270;27.942;2023-02-15T07:05:23;15.93;;;7.13;;
32455;SDS011;18912;43.270;27.942;2023-02-15T07:07:49;14.43;;;7.20;;
32455;SDS011;18912;43.270;27.942;2023-02-15T07:10:15;15.07;;;7.67;;
32455;SDS011;18912;43.270;27.942;2023-02-15T07:12:40;17.50;;;7.50;;
32455;SDS011;18912;43.270;27.942;2023-02-15T07:15:10;18.83;;;7.60;;
32455;SDS011;18912;43.270;27.942;2023-02-15T07:17:45;14.70;;;7.18;;
32455;SDS011;18912;43.270;27.942;2023-02-15T07:20:12;16.33;;;7.45;;
32455;SDS011;18912;43.270;27.942;2023-02-15T07:22:40;14.25;;;6.85;;
32455;SDS011;18912;43.270;27.942;2023-02-15T07:25:06;22.57;;;8.60;;
32455;SDS011;18912;43.270;27.942;2023-02-15T07:27:33;12.20;;;7.18;;
32455;SDS011;18912;43.270;27.942;2023-02-15T07:29:59;20.42;;;8.05;;
32455;SDS011;18912;43.270;27.942;2023-02-15T07:32:28;14.82;;;8.07;;
32455;SDS011;18912;43.270;27.942;2023-02-15T07:34:55;17.13;;;7.35;;
32455;SDS011;18912;43.270;27.942;2023-02-15T07:37:21;18.17;;;8.27;;
32455;SDS011;18912;43.270;27.942;2023-02-15T07:39:46;15.90;;;8.07;;
32455;SDS011;18912;43.270;27.942;2023-02-15T07:42:11;12.80;;;7.67;;
32455;SDS011;18912;43.270;27.942;2023-02-15T07:44:37;15.30;;;7.83;;
32455;SDS011;18912;43.270;27.942;2023-02-15T07:47:02;13.93;;;7.37;;
32455;SDS011;18912;43.270;27.942;2023-02-15T07:49:28;16.90;;;8.47;;
32455;SDS011;18912;43.270;27.942;2023-02-15T07:51:53;19.33;;;7.97;;
32455;SDS011;18912;43.270;27.942;2023-02-15T07:54:19;15.33;;;7.87;;
32455;SDS011;18912;43.270;27.942;2023-02-15T07:56:44;17.10;;;8.63;;
32455;SDS011;18912;43.270;27.942;2023-02-15T07:59:10;16.60;;;7.57;;
32455;SDS011;18912;43.270;27.942;2023-02-15T08:01:36;15.30;;;7.73;;
32455;SDS011;18912;43.270;27.942;2023-02-15T08:04:03;14.55;;;7.60;;
32455;SDS011;18912;43.270;27.942;2023-02-15T08:06:31;14.05;;;7.43;;
32455;SDS011;18912;43.270;27.942;2023-02-15T08:08:59;15.32;;;7.65;;
32455;SDS011;18912;43.270;27.942;2023-02-15T08:16:36;16.02;;;6.90;;
32455;SDS011;18912;43.270;27.942;2023-02-15T08:19:21;18.50;;;7.25;;
32455;SDS011;18912;43.270;27.942;2023-02-15T08:21:49;13.05;;;7.13;;
32455;SDS011;18912;43.270;27.942;2023-02-15T08:24:19;16.45;;;7.78;;
32455;SDS011;18912;43.270;27.942;2023-02-15T08:26:46;13.88;;;7.47;;
32455;SDS011;18912;43.270;27.942;2023-02-15T08:29:16;14.85;;;7.40;;
32455;SDS011;18912;43.270;27.942;2023-02-15T08:31:43;12.63;;;7.25;;
32455;SDS011;18912;43.270;27.942;2023-02-15T08:34:09;15.17;;;7.57;;
32455;SDS011;18912;43.270;27.942;2023-02-15T08:36:36;16.98;;;7.80;;
32455;SDS011;18912;43.270;27.942;2023-02-15T08:39:03;11.47;;;5.17;;
32455;SDS011;18912;43.270;27.942;2023-02-15T08:41:31;20.95;;;7.65;;
32455;SDS011;18912;43.270;27.942;2023-02-15T08:44:02;14.18;;;7.22;;
32455;SDS011;18912;43.270;27.942;2023-02-15T08:46:31;11.52;;;6.53;;
32455;SDS011;18912;43.270;27.942;2023-02-15T08:48:58;13.82;;;7.05;;
32455;SDS011;18912;43.270;27.942;2023-02-15T08:51:25;11.83;;;5.20;;
32455;SDS011;18912;43.270;27.942;2023-02-15T08:53:54;12.35;;;7.40;;
32455;SDS011;18912;43.270;27.942;2023-02-15T08:56:22;13.73;;;7.07;;
32455;SDS011;18912;43.270;27.942;2023-02-15T08:58:57;15.73;;;7.70;;
32455;SDS011;18912;43.270;27.942;2023-02-15T09:01:24;15.87;;;7.33;;
32455;SDS011;18912;43.270;27.942;2023-02-15T09:03:55;14.52;;;7.03;;
32455;SDS011;18912;43.270;27.942;2023-02-15T09:06:22;13.07;;;7.18;;
32455;SDS011;18912;43.270;27.942;2023-02-15T09:08:49;14.85;;;6.75;;
32455;SDS011;18912;43.270;27.942;2023-02-15T09:11:17;16.45;;;6.78;;
32455;SDS011;18912;43.270;27.942;2023-02-15T09:13:47;16.38;;;6.60;;
32455;SDS011;18912;43.270;27.942;2023-02-15T09:16:14;19.65;;;6.85;;
32455;SDS011;18912;43.270;27.942;2023-02-15T09:18:43;16.08;;;6.95;;
32455;SDS011;18912;43.270;27.942;2023-02-15T09:21:10;15.73;;;7.07;;
32455;SDS011;18912;43.270;27.942;2023-02-15T09:23:40;19.25;;;6.82;;
32455;SDS011;18912;43.270;27.942;2023-02-15T09:26:08;15.07;;;6.57;;
32455;SDS011;18912;43.270;27.942;2023-02-15T09:28:45;14.57;;;7.10;;
32455;SDS011;18912;43.270;27.942;2023-02-15T09:31:15;14.80;;;6.85;;
32455;SDS011;18912;43.270;27.942;2023-02-15T09:33:43;15.95;;;6.35;;
32455;SDS011;18912;43.270;27.942;2023-02-15T09:36:17;15.18;;;6.50;;
32455;SDS011;18912;43.270;27.942;2023-02-15T09:38:47;13.43;;;7.13;;
32455;SDS011;18912;43.270;27.942;2023-02-15T09:47:01;14.45;;;6.15;;
32455;SDS011;18912;43.270;27.942;2023-02-15T09:52:27;17.45;;;7.05;;
32455;SDS011;18912;43.270;27.942;2023-02-15T09:55:21;11.52;;;6.45;;
32455;SDS011;18912;43.270;27.942;2023-02-15T10:03:16;13.13;;;7.15;;
32455;SDS011;18912;43.270;27.942;2023-02-15T10:19:20;15.55;;;7.28;;
32455;SDS011;18912;43.270;27.942;2023-02-15T10:28:23;17.45;;;8.25;;
32455;SDS011;18912;43.270;27.942;2023-02-15T10:30:51;14.20;;;7.88;;
32455;SDS011;18912;43.270;27.942;2023-02-15T10:39:06;15.48;;;8.45;;
32455;SDS011;18912;43.270;27.942;2023-02-15T10:51:02;18.67;;;7.90;;
32455;SDS011;18912;43.270;27.942;2023-02-15T11:01:41;17.05;;;9.30;;
32455;SDS011;18912;43.270;27.942;2023-02-15T11:04:24;21.70;;;8.50;;
32455;SDS011;18912;43.270;27.942;2023-02-15T11:09:57;24.58;;;9.25;;
32455;SDS011;18912;43.270;27.942;2023-02-15T11:12:44;15.38;;;8.32;;
32455;SDS011;18912;43.270;27.942;2023-02-15T11:15:16;17.48;;;8.13;;
32455;SDS011;18912;43.270;27.942;2023-02-15T11:17:49;15.57;;;8.00;;
32455;SDS011;18912;43.270;27.942;2023-02-15T11:22:57;15.55;;;8.07;;
32455;SDS011;18912;43.270;27.942;2023-02-15T11:25:29;18.08;;;8.55;;
32455;SDS011;18912;43.270;27.942;2023-02-15T11:27:56;23.95;;;9.35;;
32455;SDS011;18912;43.270;27.942;2023-02-15T11:30:23;17.23;;;8.63;;
32455;SDS011;18912;43.270;27.942;2023-02-15T11:32:56;14.02;;;8.38;;
32455;SDS011;18912;43.270;27.942;2023-02-15T11:35:31;17.35;;;8.82;;
32455;SDS011;18912;43.270;27.942;2023-02-15T11:38:18;17.67;;;9.35;;
32455;SDS011;18912;43.270;27.942;2023-02-15T11:46:07;18.42;;;9.48;;
32455;SDS011;18912;43.270;27.942;2023-02-15T11:48:35;21.45;;;9.45;;
32455;SDS011;18912;43.270;27.942;2023-02-15T11:51:01;11.67;;;6.50;;
32455;SDS011;18912;43.270;27.942;2023-02-15T11:53:28;22.73;;;9.40;;
32455;SDS011;18912;43.270;27.942;2023-02-15T11:55:58;19.50;;;9.52;;
32455;SDS011;18912;43.270;27.942;2023-02-15T11:58:40;20.20;;;9.90;;
32455;SDS011;18912;43.270;27.942;2023-02-15T12:01:10;18.30;;;9.93;;
32455;SDS011;18912;43.270;27.942;2023-02-15T12:03:47;18.33;;;9.23;;
32455;SDS011;18912;43.270;27.942;2023-02-15T12:06:29;13.40;;;7.88;;
32455;SDS011;18912;43.270;27.942;2023-02-15T12:11:45;23.75;;;9.55;;
32455;SDS011;18912;43.270;27.942;2023-02-15T12:14:11;22.80;;;8.90;;
32455;SDS011;18912;43.270;27.942;2023-02-15T12:16:44;19.67;;;9.18;;
32455;SDS011;18912;43.270;27.942;2023-02-15T12:19:29;18.73;;;8.98;;
32455;SDS011;18912;43.270;27.942;2023-02-15T12:21:59;16.33;;;8.77;;
32455;SDS011;18912;43.270;27.942;2023-02-15T12:24:28;19.67;;;9.20;;
32455;SDS011;18912;43.270;27.942;2023-02-15T12:27:10;18.33;;;9.20;;
32455;SDS011;18912;43.270;27.942;2023-02-15T12:29:42;21.30;;;10.25;;
32455;SDS011;18912;43.270;27.942;2023-02-15T12:32:11;17.42;;;9.63;;
32455;SDS011;18912;43.270;27.942;2023-02-15T12:34:43;19.90;;;9.60;;
32455;SDS011;18912;43.270;27.942;2023-02-15T12:37:21;21.98;;;10.43;;
32455;SDS011;18912;43.270;27.942;2023-02-15T12:39:57;22.13;;;10.77;;
32455;SDS011;18912;43.270;27.942;2023-02-15T12:42:24;19.60;;;10.05;;
32455;SDS011;18912;43.270;27.942;2023-02-15T12:47:25;19.25;;;10.40;;
32455;SDS011;18912;43.270;27.942;2023-02-15T12:50:34;21.70;;;11.25;;
32455;SDS011;18912;43.270;27.942;2023-02-15T12:53:05;18.52;;;10.15;;
32455;SDS011;18912;43.270;27.942;2023-02-15T12:58:22;20.83;;;11.13;;
32455;SDS011;18912;43.270;27.942;2023-02-15T13:03:34;25.60;;;11.55;;
32455;SDS011;18912;43.270;27.942;2023-02-15T13:06:00;23.77;;;11.23;;
32455;SDS011;18912;43.270;27.942;2023-02-15T13:08:31;21.35;;;10.55;;
32455;SDS011;18912;43.270;27.942;2023-02-15T13:11:00;20.15;;;11.43;;
32455;SDS011;18912;43.270;27.942;2023-02-15T13:13:33;18.38;;;10.50;;
32455;SDS011;18912;43.270;27.942;2023-02-15T13:16:06;21.38;;;11.40;;
32455;SDS011;18912;43.270;27.942;2023-02-15T13:23:37;22.90;;;11.73;;
32455;SDS011;18912;43.270;27.942;2023-02-15T13:26:09;24.65;;;11.48;;
32455;SDS011;18912;43.270;27.942;2023-02-15T13:28:41;25.92;;;11.23;;
32455;SDS011;18912;43.270;27.942;2023-02-15T13:31:20;31.95;;;10.93;;
32455;SDS011;18912;43.270;27.942;2023-02-15T13:33:56;23.25;;;12.18;;
32455;SDS011;18912;43.270;27.942;2023-02-15T13:39:08;21.85;;;11.57;;
32455;SDS011;18912;43.270;27.942;2023-02-15T13:47:32;24.70;;;11.93;;
32455;SDS011;18912;43.270;27.942;2023-02-15T13:53:16;24.25;;;12.02;;
32455;SDS011;18912;43.270;27.942;2023-02-15T13:59:11;27.13;;;11.80;;
32455;SDS011;18912;43.270;27.942;2023-02-15T14:01:58;19.38;;;10.52;;
32455;SDS011;18912;43.270;27.942;2023-02-15T14:12:51;20.17;;;10.45;;
32455;SDS011;18912;43.270;27.942;2023-02-15T14:15:49;22.73;;;10.68;;
32455;SDS011;18912;43.270;27.942;2023-02-15T14:29:49;17.30;;;7.95;;
32455;SDS011;18912;43.270;27.942;2023-02-15T14:35:27;15.00;;;7.88;;
32455;SDS011;18912;43.270;27.942;2023-02-15T14:38:03;19.65;;;8.70;;
32455;SDS011;18912;43.270;27.942;2023-02-15T14:40:46;17.33;;;8.65;;
32455;SDS011;18912;43.270;27.942;2023-02-15T14:43:40;18.35;;;8.68;;
32455;SDS011;18912;43.270;27.942;2023-02-15T14:49:05;18.55;;;8.55;;
32455;SDS011;18912;43.270;27.942;2023-02-15T14:54:08;16.02;;;8.65;;
32455;SDS011;18912;43.270;27.942;2023-02-15T14:56:35;18.02;;;9.15;;
32455;SDS011;18912;43.270;27.942;2023-02-15T15:01:40;16.55;;;9.23;;
32455;SDS011;18912;43.270;27.942;2023-02-15T15:04:11;20.33;;;8.88;;
32455;SDS011;18912;43.270;27.942;2023-02-15T15:06:56;15.20;;;8.77;;
32455;SDS011;18912;43.270;27.942;2023-02-15T15:09:30;16.88;;;8.60;;
32455;SDS011;18912;43.270;27.942;2023-02-15T15:14:46;19.08;;;9.38;;
32455;SDS011;18912;43.270;27.942;2023-02-15T15:17:13;17.95;;;9.55;;
32455;SDS011;18912;43.270;27.942;2023-02-15T15:20:11;19.03;;;9.83;;
32455;SDS011;18912;43.270;27.942;2023-02-15T15:22:38;19.77;;;9.43;;
32455;SDS011;18912;43.270;27.942;2023-02-15T15:25:09;21.63;;;9.65;;
32455;SDS011;18912;43.270;27.942;2023-02-15T15:27:43;19.30;;;10.05;;
32455;SDS011;18912;43.270;27.942;2023-02-15T15:41:42;20.00;;;10.20;;
32455;SDS011;18912;43.270;27.942;2023-02-15T15:47:16;28.50;;;12.43;;
32455;SDS011;18912;43.270;27.942;2023-02-15T15:50:15;24.98;;;9.20;;
32455;SDS011;18912;43.270;27.942;2023-02-15T15:52:47;20.50;;;10.00;;
32455;SDS011;18912;43.270;27.942;2023-02-15T15:55:18;21.83;;;9.70;;
32455;SDS011;18912;43.270;27.942;2023-02-15T15:57:48;21.27;;;10.60;;
32455;SDS011;18912;43.270;27.942;2023-02-15T16:00:29;21.20;;;10.40;;
32455;SDS011;18912;43.270;27.942;2023-02-15T16:02:59;22.80;;;9.70;;
32455;SDS011;18912;43.270;27.942;2023-02-15T16:05:25;26.07;;;11.30;;
32455;SDS011;18912;43.270;27.942;2023-02-15T16:07:50;24.73;;;11.53;;
32455;SDS011;18912;43.270;27.942;2023-02-15T16:10:20;14.60;;;7.20;;
32455;SDS011;18912;43.270;27.942;2023-02-15T16:12:51;22.67;;;11.32;;
32455;SDS011;18912;43.270;27.942;2023-02-15T16:17:56;28.75;;;12.13;;
32455;SDS011;18912;43.270;27.942;2023-02-15T16:20:27;33.65;;;14.93;;
32455;SDS011;18912;43.270;27.942;2023-02-15T16:28:49;34.53;;;15.88;;
32455;SDS011;18912;43.270;27.942;2023-02-15T16:31:18;31.75;;;14.30;;
32455;SDS011;18912;43.270;27.942;2023-02-15T16:33:47;36.90;;;17.27;;
32455;SDS011;18912;43.270;27.942;2023-02-15T16:36:23;38.17;;;17.95;;
32455;SDS011;18912;43.270;27.942;2023-02-15T16:41:16;49.30;;;22.00;;
32455;SDS011;18912;43.270;27.942;2023-02-15T16:43:47;52.30;;;22.58;;
32455;SDS011;18912;43.270;27.942;2023-02-15T16:46:23;38.90;;;17.80;;
32455;SDS011;18912;43.270;27.942;2023-02-15T16:48:54;35.17;;;15.80;;
32455;SDS011;18912;43.270;27.942;2023-02-15T16:51:24;31.90;;;15.25;;
32455;SDS011;18912;43.270;27.942;2023-02-15T16:53:52;34.20;;;14.40;;
32455;SDS011;18912;43.270;27.942;2023-02-15T16:56:22;33.05;;;13.65;;
32455;SDS011;18912;43.270;27.942;2023-02-15T16:58:50;32.30;;;14.02;;
32455;SDS011;18912;43.270;27.942;2023-02-15T17:01:19;33.33;;;14.00;;
32455;SDS011;18912;43.270;27.942;2023-02-15T17:03:48;28.85;;;13.20;;
32455;SDS011;18912;43.270;27.942;2023-02-15T17:06:19;36.47;;;15.85;;
32455;SDS011;18912;43.270;27.942;2023-02-15T17:08:46;31.85;;;16.08;;
32455;SDS011;18912;43.270;27.942;2023-02-15T17:11:16;35.30;;;16.77;;
32455;SDS011;18912;43.270;27.942;2023-02-15T17:16:41;38.42;;;16.17;;
32455;SDS011;18912;43.270;27.942;2023-02-15T17:19:14;36.97;;;17.85;;
32455;SDS011;18912;43.270;27.942;2023-02-15T17:21:48;49.70;;;22.63;;
32455;SDS011;18912;43.270;27.942;2023-02-15T17:24:20;38.15;;;17.67;;
32455;SDS011;18912;43.270;27.942;2023-02-15T17:26:54;40.65;;;17.10;;
32455;SDS011;18912;43.270;27.942;2023-02-15T17:32:02;41.88;;;15.57;;
32455;SDS011;18912;43.270;27.942;2023-02-15T17:37:10;34.00;;;14.75;;
32455;SDS011;18912;43.270;27.942;2023-02-15T17:39:37;55.67;;;23.40;;
32455;SDS011;18912;43.270;27.942;2023-02-15T17:42:03;36.43;;;16.73;;
32455;SDS011;18912;43.270;27.942;2023-02-15T17:44:28;41.97;;;17.90;;
32455;SDS011;18912;43.270;27.942;2023-02-15T17:46:54;37.67;;;17.60;;
32455;SDS011;18912;43.270;27.942;2023-02-15T17:49:23;34.23;;;16.73;;
32455;SDS011;18912;43.270;27.942;2023-02-15T17:51:53;34.95;;;16.88;;
32455;SDS011;18912;43.270;27.942;2023-02-15T17:54:18;43.87;;;17.23;;
32455;SDS011;18912;43.270;27.942;2023-02-15T17:57:04;35.55;;;16.35;;
32455;SDS011;18912;43.270;27.942;2023-02-15T17:59:36;38.47;;;16.30;;
32455;SDS011;18912;43.270;27.942;2023-02-15T18:02:20;37.47;;;15.38;;
32455;SDS011;18912;43.270;27.942;2023-02-15T18:05:04;32.45;;;14.68;;
32455;SDS011;18912;43.270;27.942;2023-02-15T18:07:54;32.55;;;13.18;;
32455;SDS011;18912;43.270;27.942;2023-02-15T18:10:38;28.73;;;12.95;;